sensor_id;sensor_type;location;lat;lon;timestamp;pressure;altitude;pressure_sealevel;temperature;humidity
7376;BME280;3728;42.266;24.944;2023-06-22T00:00:25;99787.47;;;23.02;86.84
7376;BME280;3728;42.266;24.944;2023-06-22T00:02:54;99791.28;;;22.98;86.82
7376;BME280;3728;42.266;24.944;2023-06-22T00:05:21;99797.75;;;22.93;87.04
7376;BME280;3728;42.266;24.944;2023-06-22T00:07:49;99792.75;;;22.92;86.59
7376;BME280;3728;42.266;24.944;2023-06-22T00:10:16;99794.31;;;22.93;85.33
7376;BME280;3728;42.266;24.944;2023-06-22T00:12:44;99803.19;;;23.18;83.90
7376;BME280;3728;42.266;24.944;2023-06-22T00:15:11;99799.66;;;22.93;85.58
7376;BME280;3728;42.266;24.944;2023-06-22T00:17:39;99797.41;;;23.09;84.48
7376;BME280;3728;42.266;24.944;2023-06-22T00:20:07;99794.34;;;23.07;85.07
7376;BME280;3728;42.266;24.944;2023-06-22T00:22:36;99800.78;;;22.92;85.52
7376;BME280;3728;42.266;24.944;2023-06-22T00:25:08;99807.78;;;22.53;87.51
7376;BME280;3728;42.266;24.944;2023-06-22T00:27:37;99803.19;;;22.46;88.69
7376;BME280;3728;42.266;24.944;2023-06-22T00:30:06;99804.28;;;22.41;89.80
7376;BME280;3728;42.266;24.944;2023-06-22T00:32:34;99805.53;;;22.58;87.20
7376;BME280;3728;42.266;24.944;2023-06-22T00:35:01;99810.03;;;22.43;88.87
7376;BME280;3728;42.266;24.944;2023-06-22T00:37:29;99803.19;;;22.46;88.48
7376;BME280;3728;42.266;24.944;2023-06-22T00:39:58;99817.97;;;22.91;85.23
7376;BME280;3728;42.266;24.944;2023-06-22T00:42:25;99816.97;;;22.55;86.78
7376;BME280;3728;42.266;24.944;2023-06-22T00:44:53;99808.91;;;22.48;88.60
7376;BME280;3728;42.266;24.944;2023-06-22T00:47:23;99811.56;;;22.44;89.75
7376;BME280;3728;42.266;24.944;2023-06-22T00:49:50;99806.09;;;22.30;91.23
7376;BME280;3728;42.266;24.944;2023-06-22T00:52:22;99796.16;;;22.24;91.41
7376;BME280;3728;42.266;24.944;2023-06-22T00:54:56;99809.09;;;22.22;92.01
7376;BME280;3728;42.266;24.944;2023-06-22T00:57:28;99804.53;;;22.26;92.19
7376;BME280;3728;42.266;24.944;2023-06-22T00:59:56;99808.47;;;22.39;92.10
7376;BME280;3728;42.266;24.944;2023-06-22T01:02:23;99803.53;;;22.41;92.58
7376;BME280;3728;42.266;24.944;2023-06-22T01:04:51;99805.06;;;22.42;92.19
7376;BME280;3728;42.266;24.944;2023-06-22T01:12:50;99814.09;;;22.30;93.33
7376;BME280;3728;42.266;24.944;2023-06-22T01:15:29;99803.03;;;22.28;93.30
7376;BME280;3728;42.266;24.944;2023-06-22T01:18:08;99808.00;;;22.26;93.80
7376;BME280;3728;42.266;24.944;2023-06-22T01:20:36;99808.78;;;22.30;93.04
7376;BME280;3728;42.266;24.944;2023-06-22T01:26:14;99797.84;;;22.46;88.55
7376;BME280;3728;42.266;24.944;2023-06-22T01:28:52;99780.34;;;22.56;88.23
7376;BME280;3728;42.266;24.944;2023-06-22T01:31:26;99792.59;;;22.60;87.21
7376;BME280;3728;42.266;24.944;2023-06-22T01:34:03;99799.81;;;22.56;87.38
7376;BME280;3728;42.266;24.944;2023-06-22T01:36:33;99803.22;;;22.53;86.90
7376;BME280;3728;42.266;24.944;2023-06-22T01:39:04;99803.03;;;22.28;88.82
7376;BME280;3728;42.266;24.944;2023-06-22T01:41:36;99798.41;;;22.18;90.01
7376;BME280;3728;42.266;24.944;2023-06-22T01:44:05;99793.13;;;22.25;90.82
7376;BME280;3728;42.266;24.944;2023-06-22T01:46:35;99790.03;;;22.23;91.46
7376;BME280;3728;42.266;24.944;2023-06-22T01:49:07;99787.38;;;22.23;91.72
7376;BME280;3728;42.266;24.944;2023-06-22T01:51:35;99791.59;;;22.24;92.43
7376;BME280;3728;42.266;24.944;2023-06-22T01:54:06;99799.19;;;22.22;92.60
7376;BME280;3728;42.266;24.944;2023-06-22T01:56:35;99792.22;;;22.07;93.12
7376;BME280;3728;42.266;24.944;2023-06-22T01:59:36;99797.19;;;22.09;92.76
7376;BME280;3728;42.266;24.944;2023-06-22T02:02:06;99791.47;;;22.07;92.74
7376;BME280;3728;42.266;24.944;2023-06-22T02:04:41;99795.63;;;22.04;93.56
7376;BME280;3728;42.266;24.944;2023-06-22T02:07:14;99794.44;;;21.98;93.27
7376;BME280;3728;42.266;24.944;2023-06-22T02:09:45;99798.19;;;21.94;93.51
7376;BME280;3728;42.266;24.944;2023-06-22T02:12:18;99791.69;;;21.88;94.22
7376;BME280;3728;42.266;24.944;2023-06-22T02:14:50;99794.19;;;21.73;94.78
7376;BME280;3728;42.266;24.944;2023-06-22T02:17:19;99795.72;;;21.74;95.00
7376;BME280;3728;42.266;24.944;2023-06-22T02:19:47;99798.91;;;21.87;94.26
7376;BME280;3728;42.266;24.944;2023-06-22T02:22:15;99808.75;;;21.83;94.04
7376;BME280;3728;42.266;24.944;2023-06-22T02:24:43;99814.38;;;21.74;93.67
7376;BME280;3728;42.266;24.944;2023-06-22T02:27:10;99806.16;;;21.50;93.74
7376;BME280;3728;42.266;24.944;2023-06-22T02:29:39;99811.56;;;21.24;95.80
7376;BME280;3728;42.266;24.944;2023-06-22T02:32:08;99815.47;;;21.03;96.25
7376;BME280;3728;42.266;24.944;2023-06-22T02:34:37;99821.81;;;21.22;95.74
7376;BME280;3728;42.266;24.944;2023-06-22T02:37:07;99823.75;;;21.25;93.81
7376;BME280;3728;42.266;24.944;2023-06-22T02:39:42;99824.66;;;21.39;93.96
7376;BME280;3728;42.266;24.944;2023-06-22T02:42:09;99820.28;;;21.21;94.62
7376;BME280;3728;42.266;24.944;2023-06-22T02:44:37;99817.22;;;21.19;95.63
7376;BME280;3728;42.266;24.944;2023-06-22T02:47:05;99815.34;;;21.23;95.82
7376;BME280;3728;42.266;24.944;2023-06-22T02:49:32;99819.25;;;21.29;95.23
7376;BME280;3728;42.266;24.944;2023-06-22T02:52:00;99820.84;;;21.37;95.87
7376;BME280;3728;42.266;24.944;2023-06-22T02:54:28;99825.06;;;21.41;96.11
7376;BME280;3728;42.266;24.944;2023-06-22T02:56:55;99833.03;;;21.38;96.68
7376;BME280;3728;42.266;24.944;2023-06-22T02:59:23;99836.81;;;21.37;96.83
7376;BME280;3728;42.266;24.944;2023-06-22T03:01:57;99834.94;;;21.37;96.89
7376;BME280;3728;42.266;24.944;2023-06-22T03:04:28;99836.13;;;21.43;97.62
7376;BME280;3728;42.266;24.944;2023-06-22T03:06:57;99834.47;;;21.32;97.29
7376;BME280;3728;42.266;24.944;2023-06-22T03:09:32;99832.41;;;21.15;98.66
7376;BME280;3728;42.266;24.944;2023-06-22T03:11:59;99832.50;;;21.25;98.96
7376;BME280;3728;42.266;24.944;2023-06-22T03:14:43;99835.47;;;21.17;99.27
7376;BME280;3728;42.266;24.944;2023-06-22T03:17:11;99832.72;;;21.09;98.79
7376;BME280;3728;42.266;24.944;2023-06-22T03:19:39;99834.09;;;21.03;99.05
7376;BME280;3728;42.266;24.944;2023-06-22T03:22:07;99844.34;;;21.28;99.10
7376;BME280;3728;42.266;24.944;2023-06-22T03:24:34;99841.44;;;21.40;96.66
7376;BME280;3728;42.266;24.944;2023-06-22T03:27:04;99852.41;;;21.35;97.16
7376;BME280;3728;42.266;24.944;2023-06-22T03:29:33;99846.38;;;21.38;97.50
7376;BME280;3728;42.266;24.944;2023-06-22T03:32:01;99856.78;;;21.50;95.02
7376;BME280;3728;42.266;24.944;2023-06-22T03:34:30;99868.56;;;21.49;94.66
7376;BME280;3728;42.266;24.944;2023-06-22T03:37:01;99864.47;;;21.25;96.25
7376;BME280;3728;42.266;24.944;2023-06-22T03:39:32;99849.03;;;21.08;98.09
7376;BME280;3728;42.266;24.944;2023-06-22T03:42:00;99849.41;;;21.06;99.79
7376;BME280;3728;42.266;24.944;2023-06-22T03:44:27;99852.84;;;21.07;100.00
7376;BME280;3728;42.266;24.944;2023-06-22T03:46:56;99849.91;;;21.16;100.00
7376;BME280;3728;42.266;24.944;2023-06-22T03:49:23;99849.22;;;21.22;100.00
7376;BME280;3728;42.266;24.944;2023-06-22T03:51:51;99860.00;;;21.33;100.00
7376;BME280;3728;42.266;24.944;2023-06-22T03:54:18;99852.13;;;21.43;100.00
7376;BME280;3728;42.266;24.944;2023-06-22T03:56:46;99851.69;;;21.74;97.18
7376;BME280;3728;42.266;24.944;2023-06-22T03:59:13;99855.06;;;21.64;96.28
7376;BME280;3728;42.266;24.944;2023-06-22T04:01:41;99850.91;;;21.37;98.94
7376;BME280;3728;42.266;24.944;2023-06-22T04:04:08;99848.78;;;21.50;98.61
7376;BME280;3728;42.266;24.944;2023-06-22T04:06:36;99846.22;;;21.27;100.00
7376;BME280;3728;42.266;24.944;2023-06-22T04:09:05;99853.09;;;21.28;100.00
7376;BME280;3728;42.266;24.944;2023-06-22T04:11:32;99848.56;;;21.32;100.00
7376;BME280;3728;42.266;24.944;2023-06-22T04:14:00;99851.00;;;21.44;100.00
7376;BME280;3728;42.266;24.944;2023-06-22T04:16:28;99848.03;;;21.53;100.00
7376;BME280;3728;42.266;24.944;2023-06-22T04:18:55;99854.91;;;21.50;100.00
7376;BME280;3728;42.266;24.944;2023-06-22T04:21:23;99851.63;;;21.64;100.00
7376;BME280;3728;42.266;24.944;2023-06-22T04:23:50;99860.31;;;21.94;100.00
7376;BME280;3728;42.266;24.944;2023-06-22T04:26:18;99862.91;;;22.75;95.54
7376;BME280;3728;42.266;24.944;2023-06-22T04:28:48;99864.44;;;22.83;93.84
7376;BME280;3728;42.266;24.944;2023-06-22T04:31:21;99859.88;;;22.80;92.72
7376;BME280;3728;42.266;24.944;2023-06-22T04:33:54;99871.31;;;22.80;92.35
7376;BME280;3728;42.266;24.944;2023-06-22T04:36:21;99870.44;;;22.18;98.15
7376;BME280;3728;42.266;24.944;2023-06-22T04:38:54;99862.03;;;21.79;100.00
7376;BME280;3728;42.266;24.944;2023-06-22T04:41:22;99862.28;;;21.64;100.00
7376;BME280;3728;42.266;24.944;2023-06-22T04:43:51;99867.09;;;21.85;100.00
7376;BME280;3728;42.266;24.944;2023-06-22T04:46:20;99871.97;;;22.19;100.00
7376;BME280;3728;42.266;24.944;2023-06-22T04:48:48;99869.38;;;22.26;100.00
7376;BME280;3728;42.266;24.944;2023-06-22T04:51:15;99875.41;;;22.20;100.00
7376;BME280;3728;42.266;24.944;2023-06-22T04:53:48;99875.84;;;22.25;100.00
7376;BME280;3728;42.266;24.944;2023-06-22T04:56:16;99871.69;;;22.31;99.09
7376;BME280;3728;42.266;24.944;2023-06-22T04:58:44;99876.81;;;23.08;92.93
7376;BME280;3728;42.266;24.944;2023-06-22T05:01:12;99872.22;;;23.05;93.11
7376;BME280;3728;42.266;24.944;2023-06-22T05:03:39;99874.41;;;22.89;94.12
7376;BME280;3728;42.266;24.944;2023-06-22T05:06:08;99865.91;;;22.70;94.71
7376;BME280;3728;42.266;24.944;2023-06-22T05:08:36;99870.59;;;22.87;92.92
7376;BME280;3728;42.266;24.944;2023-06-22T05:11:03;99863.28;;;22.77;92.84
7376;BME280;3728;42.266;24.944;2023-06-22T05:13:32;99880.59;;;23.04;92.03
7376;BME280;3728;42.266;24.944;2023-06-22T05:16:00;99878.78;;;23.15;90.41
7376;BME280;3728;42.266;24.944;2023-06-22T05:18:29;99873.94;;;23.49;86.78
7376;BME280;3728;42.266;24.944;2023-06-22T05:20:58;99877.34;;;23.35;87.55
7376;BME280;3728;42.266;24.944;2023-06-22T05:23:26;99880.44;;;23.44;89.11
7376;BME280;3728;42.266;24.944;2023-06-22T05:25:54;99878.59;;;23.66;86.21
7376;BME280;3728;42.266;24.944;2023-06-22T05:28:24;99876.41;;;24.17;81.87
7376;BME280;3728;42.266;24.944;2023-06-22T05:30:52;99869.50;;;24.06;83.18
7376;BME280;3728;42.266;24.944;2023-06-22T05:33:19;99879.09;;;24.21;82.41
7376;BME280;3728;42.266;24.944;2023-06-22T05:35:47;99886.34;;;24.10;83.84
7376;BME280;3728;42.266;24.944;2023-06-22T05:38:14;99883.28;;;24.15;82.53
7376;BME280;3728;42.266;24.944;2023-06-22T05:40:42;99883.28;;;24.08;84.60
7376;BME280;3728;42.266;24.944;2023-06-22T05:43:09;99880.63;;;24.11;83.66
7376;BME280;3728;42.266;24.944;2023-06-22T05:45:37;99882.16;;;24.23;82.97
7376;BME280;3728;42.266;24.944;2023-06-22T05:48:04;99885.56;;;24.69;80.76
7376;BME280;3728;42.266;24.944;2023-06-22T05:50:32;99886.75;;;24.82;79.93
7376;BME280;3728;42.266;24.944;2023-06-22T05:53:00;99882.50;;;24.71;80.63
7376;BME280;3728;42.266;24.944;2023-06-22T05:55:27;99885.56;;;24.90;79.38
7376;BME280;3728;42.266;24.944;2023-06-22T05:57:55;99879.28;;;25.32;78.29
7376;BME280;3728;42.266;24.944;2023-06-22T06:00:22;99886.16;;;25.47;77.67
7376;BME280;3728;42.266;24.944;2023-06-22T06:02:50;99885.69;;;25.66;76.57
7376;BME280;3728;42.266;24.944;2023-06-22T06:05:18;99884.94;;;25.62;78.39
7376;BME280;3728;42.266;24.944;2023-06-22T06:07:46;99878.47;;;25.53;77.99
7376;BME280;3728;42.266;24.944;2023-06-22T06:10:14;99870.03;;;25.54;78.15
7376;BME280;3728;42.266;24.944;2023-06-22T06:12:41;99872.28;;;25.66;78.90
7376;BME280;3728;42.266;24.944;2023-06-22T06:15:09;99861.81;;;25.86;78.09
7376;BME280;3728;42.266;24.944;2023-06-22T06:17:45;99865.97;;;25.94;76.70
7376;BME280;3728;42.266;24.944;2023-06-22T06:20:15;99867.81;;;26.01;77.49
7376;BME280;3728;42.266;24.944;2023-06-22T06:22:46;99860.81;;;26.17;74.26
7376;BME280;3728;42.266;24.944;2023-06-22T06:25:16;99872.19;;;26.35;73.79
7376;BME280;3728;42.266;24.944;2023-06-22T06:27:50;99868.34;;;26.36;73.94
7376;BME280;3728;42.266;24.944;2023-06-22T06:30:18;99870.44;;;26.59;73.28
7376;BME280;3728;42.266;24.944;2023-06-22T06:32:46;99871.53;;;26.65;72.75
7376;BME280;3728;42.266;24.944;2023-06-22T06:35:15;99879.34;;;27.27;68.36
7376;BME280;3728;42.266;24.944;2023-06-22T06:37:45;99877.69;;;27.37;68.28
7376;BME280;3728;42.266;24.944;2023-06-22T06:40:14;99871.63;;;27.29;68.48
7376;BME280;3728;42.266;24.944;2023-06-22T06:42:44;99877.94;;;27.76;64.53
7376;BME280;3728;42.266;24.944;2023-06-22T06:45:18;99884.94;;;27.70;65.45
7376;BME280;3728;42.266;24.944;2023-06-22T06:47:51;99884.59;;;27.68;64.16
7376;BME280;3728;42.266;24.944;2023-06-22T06:50:19;99883.94;;;27.60;63.25
7376;BME280;3728;42.266;24.944;2023-06-22T06:52:47;99877.38;;;27.61;62.35
7376;BME280;3728;42.266;24.944;2023-06-22T06:55:17;99876.03;;;28.03;59.87
7376;BME280;3728;42.266;24.944;2023-06-22T06:57:46;99875.91;;;28.10;58.44
7376;BME280;3728;42.266;24.944;2023-06-22T07:00:15;99877.66;;;27.94;59.55
7376;BME280;3728;42.266;24.944;2023-06-22T07:02:44;99871.16;;;27.91;59.64
7376;BME280;3728;42.266;24.944;2023-06-22T07:05:14;99870.44;;;27.91;57.54
7376;BME280;3728;42.266;24.944;2023-06-22T07:07:41;99872.97;;;28.01;57.71
7376;BME280;3728;42.266;24.944;2023-06-22T07:10:10;99873.63;;;28.09;60.59
7376;BME280;3728;42.266;24.944;2023-06-22T07:12:38;99869.06;;;28.52;57.16
7376;BME280;3728;42.266;24.944;2023-06-22T07:15:07;99876.28;;;28.35;60.41
7376;BME280;3728;42.266;24.944;2023-06-22T07:17:37;99878.59;;;28.80;56.52
7376;BME280;3728;42.266;24.944;2023-06-22T07:20:07;99879.16;;;29.10;55.48
7376;BME280;3728;42.266;24.944;2023-06-22T07:22:40;99880.34;;;29.09;55.66
7376;BME280;3728;42.266;24.944;2023-06-22T07:25:10;99874.88;;;28.93;55.44
7376;BME280;3728;42.266;24.944;2023-06-22T07:27:46;99881.78;;;29.53;52.78
7376;BME280;3728;42.266;24.944;2023-06-22T07:30:23;99875.19;;;29.54;53.45
7376;BME280;3728;42.266;24.944;2023-06-22T07:32:51;99886.50;;;29.65;53.84
7376;BME280;3728;42.266;24.944;2023-06-22T07:35:19;99881.34;;;30.07;52.76
7376;BME280;3728;42.266;24.944;2023-06-22T07:37:49;99883.88;;;29.98;50.54
7376;BME280;3728;42.266;24.944;2023-06-22T07:40:17;99884.22;;;29.84;51.81
7376;BME280;3728;42.266;24.944;2023-06-22T07:42:45;99892.06;;;29.94;50.27
7376;BME280;3728;42.266;24.944;2023-06-22T07:45:14;99890.72;;;30.02;51.48
7376;BME280;3728;42.266;24.944;2023-06-22T07:47:42;99877.63;;;30.01;52.56
7376;BME280;3728;42.266;24.944;2023-06-22T07:50:10;99881.53;;;30.16;51.03
7376;BME280;3728;42.266;24.944;2023-06-22T07:52:37;99871.47;;;30.16;51.21
7376;BME280;3728;42.266;24.944;2023-06-22T07:55:05;99875.69;;;30.50;49.55
7376;BME280;3728;42.266;24.944;2023-06-22T07:57:33;99873.13;;;30.59;47.27
7376;BME280;3728;42.266;24.944;2023-06-22T08:00:04;99873.97;;;30.56;48.02
7376;BME280;3728;42.266;24.944;2023-06-22T08:02:45;99878.50;;;30.75;49.01
7376;BME280;3728;42.266;24.944;2023-06-22T08:05:14;99880.53;;;30.71;48.74
7376;BME280;3728;42.266;24.944;2023-06-22T08:07:50;99879.72;;;31.15;46.98
7376;BME280;3728;42.266;24.944;2023-06-22T08:10:20;99879.22;;;31.20;47.20
7376;BME280;3728;42.266;24.944;2023-06-22T08:12:49;99873.66;;;31.11;46.16
7376;BME280;3728;42.266;24.944;2023-06-22T08:15:18;99873.00;;;31.07;47.90
7376;BME280;3728;42.266;24.944;2023-06-22T08:17:46;99869.81;;;31.37;46.71
7376;BME280;3728;42.266;24.944;2023-06-22T08:20:14;99866.81;;;31.60;46.14
7376;BME280;3728;42.266;24.944;2023-06-22T08:22:42;99869.63;;;32.07;43.62
7376;BME280;3728;42.266;24.944;2023-06-22T08:25:10;99868.66;;;31.76;46.34
7376;BME280;3728;42.266;24.944;2023-06-22T08:27:39;99864.53;;;31.59;44.94
7376;BME280;3728;42.266;24.944;2023-06-22T08:30:09;99861.72;;;31.62;44.69
7376;BME280;3728;42.266;24.944;2023-06-22T08:32:37;99866.03;;;31.85;43.44
7376;BME280;3728;42.266;24.944;2023-06-22T08:35:05;99856.94;;;31.66;44.73
7376;BME280;3728;42.266;24.944;2023-06-22T08:37:35;99858.25;;;32.00;44.02
7376;BME280;3728;42.266;24.944;2023-06-22T08:40:07;99866.88;;;32.20;42.49
7376;BME280;3728;42.266;24.944;2023-06-22T08:42:37;99855.06;;;32.48;41.40
7376;BME280;3728;42.266;24.944;2023-06-22T08:45:07;99858.66;;;32.79;41.34
7376;BME280;3728;42.266;24.944;2023-06-22T08:47:39;99855.25;;;32.32;42.44
7376;BME280;3728;42.266;24.944;2023-06-22T08:50:11;99848.88;;;32.26;42.54
7376;BME280;3728;42.266;24.944;2023-06-22T08:52:40;99848.19;;;32.34;43.29
7376;BME280;3728;42.266;24.944;2023-06-22T08:55:09;99838.72;;;32.73;41.72
7376;BME280;3728;42.266;24.944;2023-06-22T08:57:40;99845.53;;;32.78;43.09
7376;BME280;3728;42.266;24.944;2023-06-22T09:00:08;99856.03;;;33.10;39.33
7376;BME280;3728;42.266;24.944;2023-06-22T09:02:44;99847.06;;;33.62;39.41
7376;BME280;3728;42.266;24.944;2023-06-22T09:05:12;99846.09;;;33.47;41.28
7376;BME280;3728;42.266;24.944;2023-06-22T09:07:41;99847.13;;;33.49;39.94
7376;BME280;3728;42.266;24.944;2023-06-22T09:10:09;99846.19;;;33.03;40.61
7376;BME280;3728;42.266;24.944;2023-06-22T09:12:38;99836.41;;;33.06;43.82
7376;BME280;3728;42.266;24.944;2023-06-22T09:15:07;99843.31;;;33.38;40.37
7376;BME280;3728;42.266;24.944;2023-06-22T09:17:42;99845.47;;;33.12;40.51
7376;BME280;3728;42.266;24.944;2023-06-22T09:20:10;99840.31;;;33.36;38.92
7376;BME280;3728;42.266;24.944;2023-06-22T09:22:38;99838.09;;;33.52;39.05
7376;BME280;3728;42.266;24.944;2023-06-22T09:25:06;99839.31;;;33.51;40.08
7376;BME280;3728;42.266;24.944;2023-06-22T09:27:34;99836.72;;;33.97;38.98
7376;BME280;3728;42.266;24.944;2023-06-22T09:30:04;99837.53;;;34.06;37.15
7376;BME280;3728;42.266;24.944;2023-06-22T09:32:32;99837.41;;;34.10;37.46
7376;BME280;3728;42.266;24.944;2023-06-22T09:35:04;99827.28;;;34.10;38.22
7376;BME280;3728;42.266;24.944;2023-06-22T09:37:33;99831.16;;;34.00;38.02
7376;BME280;3728;42.266;24.944;2023-06-22T09:40:01;99826.97;;;34.08;38.28
7376;BME280;3728;42.266;24.944;2023-06-22T09:42:36;99824.88;;;34.12;36.54
7376;BME280;3728;42.266;24.944;2023-06-22T09:45:05;99823.50;;;34.44;36.50
7376;BME280;3728;42.266;24.944;2023-06-22T09:47:36;99819.88;;;34.47;34.61
7376;BME280;3728;42.266;24.944;2023-06-22T09:50:05;99820.97;;;34.31;34.89
7376;BME280;3728;42.266;24.944;2023-06-22T09:52:33;99815.97;;;34.57;35.09
7376;BME280;3728;42.266;24.944;2023-06-22T09:55:14;99813.50;;;34.86;36.18
7376;BME280;3728;42.266;24.944;2023-06-22T09:57:46;99824.84;;;34.85;36.46
7376;BME280;3728;42.266;24.944;2023-06-22T10:00:15;99818.94;;;34.86;35.43
7376;BME280;3728;42.266;24.944;2023-06-22T10:02:43;99819.66;;;35.14;33.88
7376;BME280;3728;42.266;24.944;2023-06-22T10:05:11;99811.63;;;35.11;35.60
7376;BME280;3728;42.266;24.944;2023-06-22T10:07:40;99807.28;;;35.04;35.88
7376;BME280;3728;42.266;24.944;2023-06-22T10:10:11;99809.78;;;35.17;34.89
7376;BME280;3728;42.266;24.944;2023-06-22T10:12:54;99804.16;;;35.29;33.62
7376;BME280;3728;42.266;24.944;2023-06-22T10:15:22;99807.88;;;35.41;34.43
7376;BME280;3728;42.266;24.944;2023-06-22T10:17:53;99802.47;;;35.64;32.55
7376;BME280;3728;42.266;24.944;2023-06-22T10:20:21;99801.66;;;35.97;32.58
7376;BME280;3728;42.266;24.944;2023-06-22T10:22:48;99800.66;;;35.38;34.01
7376;BME280;3728;42.266;24.944;2023-06-22T10:25:17;99793.16;;;35.56;33.69
7376;BME280;3728;42.266;24.944;2023-06-22T10:27:45;99799.53;;;35.53;33.46
7376;BME280;3728;42.266;24.944;2023-06-22T10:30:13;99793.09;;;35.65;33.45
7376;BME280;3728;42.266;24.944;2023-06-22T10:32:42;99788.44;;;35.81;32.99
7376;BME280;3728;42.266;24.944;2023-06-22T10:35:10;99788.72;;;35.83;33.24
7376;BME280;3728;42.266;24.944;2023-06-22T10:37:41;99781.66;;;35.76;32.72
7376;BME280;3728;42.266;24.944;2023-06-22T10:40:11;99779.13;;;34.98;34.33
7376;BME280;3728;42.266;24.944;2023-06-22T10:42:40;99789.34;;;34.52;34.47
7376;BME280;3728;42.266;24.944;2023-06-22T10:45:08;99774.41;;;34.38;34.66
7376;BME280;3728;42.266;24.944;2023-06-22T10:47:36;99775.72;;;34.70;34.44
7376;BME280;3728;42.266;24.944;2023-06-22T10:50:06;99771.94;;;34.68;33.01
7376;BME280;3728;42.266;24.944;2023-06-22T10:52:34;99765.59;;;34.71;32.81
7376;BME280;3728;42.266;24.944;2023-06-22T10:55:01;99763.22;;;34.46;34.07
7376;BME280;3728;42.266;24.944;2023-06-22T10:57:29;99754.00;;;34.25;34.81
7376;BME280;3728;42.266;24.944;2023-06-22T10:59:57;99760.81;;;34.20;34.98
7376;BME280;3728;42.266;24.944;2023-06-22T11:02:24;99752.63;;;34.66;35.75
7376;BME280;3728;42.266;24.944;2023-06-22T11:04:54;99755.53;;;35.04;35.44
7376;BME280;3728;42.266;24.944;2023-06-22T11:07:22;99755.28;;;35.58;33.66
7376;BME280;3728;42.266;24.944;2023-06-22T11:09:50;99761.78;;;35.85;32.73
7376;BME280;3728;42.266;24.944;2023-06-22T11:12:18;99760.19;;;36.31;32.76
7376;BME280;3728;42.266;24.944;2023-06-22T11:14:45;99755.88;;;36.39;32.13
7376;BME280;3728;42.266;24.944;2023-06-22T11:17:13;99761.53;;;36.79;31.44
7376;BME280;3728;42.266;24.944;2023-06-22T11:19:40;99754.78;;;36.60;31.22
7376;BME280;3728;42.266;24.944;2023-06-22T11:22:08;99753.81;;;36.34;31.99
7376;BME280;3728;42.266;24.944;2023-06-22T11:24:35;99752.91;;;35.99;32.02
7376;BME280;3728;42.266;24.944;2023-06-22T11:27:03;99749.06;;;35.82;35.38
7376;BME280;3728;42.266;24.944;2023-06-22T11:29:32;99755.63;;;36.66;30.52
7376;BME280;3728;42.266;24.944;2023-06-22T11:32:05;99755.13;;;36.82;32.14
7376;BME280;3728;42.266;24.944;2023-06-22T11:34:33;99754.75;;;36.89;33.24
7376;BME280;3728;42.266;24.944;2023-06-22T11:37:01;99753.91;;;36.83;33.48
7376;BME280;3728;42.266;24.944;2023-06-22T11:39:30;99758.88;;;37.14;34.16
7376;BME280;3728;42.266;24.944;2023-06-22T11:42:09;99760.31;;;37.44;29.81
7376;BME280;3728;42.266;24.944;2023-06-22T11:44:38;99760.81;;;37.63;30.80
7376;BME280;3728;42.266;24.944;2023-06-22T11:47:09;99747.91;;;37.84;31.24
7376;BME280;3728;42.266;24.944;2023-06-22T11:49:36;99754.72;;;37.94;31.76
7376;BME280;3728;42.266;24.944;2023-06-22T11:52:04;99748.72;;;37.90;31.73
7376;BME280;3728;42.266;24.944;2023-06-22T11:54:32;99751.66;;;37.86;30.78
7376;BME280;3728;42.266;24.944;2023-06-22T11:57:00;99737.16;;;37.60;32.26
7376;BME280;3728;42.266;24.944;2023-06-22T11:59:27;99749.25;;;37.19;31.57
7376;BME280;3728;42.266;24.944;2023-06-22T12:01:55;99739.88;;;36.90;32.72
7376;BME280;3728;42.266;24.944;2023-06-22T12:04:24;99745.19;;;36.50;32.89
7376;BME280;3728;42.266;24.944;2023-06-22T12:06:52;99740.84;;;36.44;32.13
7376;BME280;3728;42.266;24.944;2023-06-22T12:09:19;99744.44;;;36.11;32.54
7376;BME280;3728;42.266;24.944;2023-06-22T12:11:47;99743.72;;;36.11;33.13
7376;BME280;3728;42.266;24.944;2023-06-22T12:14:14;99745.63;;;35.96;32.42
7376;BME280;3728;42.266;24.944;2023-06-22T12:16:42;99738.28;;;36.40;30.70
7376;BME280;3728;42.266;24.944;2023-06-22T12:19:13;99733.09;;;36.13;32.44
7376;BME280;3728;42.266;24.944;2023-06-22T12:21:40;99727.81;;;36.24;34.52
7376;BME280;3728;42.266;24.944;2023-06-22T12:24:08;99732.00;;;36.63;32.56
7376;BME280;3728;42.266;24.944;2023-06-22T12:26:36;99733.28;;;36.97;32.52
7376;BME280;3728;42.266;24.944;2023-06-22T12:29:03;99726.16;;;37.54;31.73
7376;BME280;3728;42.266;24.944;2023-06-22T12:31:31;99725.91;;;37.78;29.67
7376;BME280;3728;42.266;24.944;2023-06-22T12:33:58;99722.22;;;37.81;30.51
7376;BME280;3728;42.266;24.944;2023-06-22T12:36:26;99720.19;;;37.96;29.68
7376;BME280;3728;42.266;24.944;2023-06-22T12:38:53;99715.94;;;37.95;29.71
7376;BME280;3728;42.266;24.944;2023-06-22T12:41:22;99709.25;;;37.96;29.98
7376;BME280;3728;42.266;24.944;2023-06-22T12:43:50;99713.91;;;38.16;29.71
7376;BME280;3728;42.266;24.944;2023-06-22T12:46:17;99707.88;;;38.06;29.89
7376;BME280;3728;42.266;24.944;2023-06-22T12:48:46;99700.88;;;38.05;29.33
7376;BME280;3728;42.266;24.944;2023-06-22T12:51:22;99696.44;;;38.08;32.31
7376;BME280;3728;42.266;24.944;2023-06-22T12:53:50;99700.28;;;38.21;30.24
7376;BME280;3728;42.266;24.944;2023-06-22T12:56:18;99700.09;;;38.25;29.50
7376;BME280;3728;42.266;24.944;2023-06-22T12:58:45;99701.13;;;38.59;28.15
7376;BME280;3728;42.266;24.944;2023-06-22T13:01:13;99708.03;;;38.49;29.22
7376;BME280;3728;42.266;24.944;2023-06-22T13:03:41;99705.69;;;38.36;29.07
7376;BME280;3728;42.266;24.944;2023-06-22T13:06:10;99702.44;;;38.38;29.52
7376;BME280;3728;42.266;24.944;2023-06-22T13:08:38;99698.56;;;38.50;28.87
7376;BME280;3728;42.266;24.944;2023-06-22T13:11:08;99707.59;;;38.56;28.75
7376;BME280;3728;42.266;24.944;2023-06-22T13:13:36;99698.47;;;38.70;28.43
7376;BME280;3728;42.266;24.944;2023-06-22T13:16:05;99685.50;;;38.65;28.07
7376;BME280;3728;42.266;24.944;2023-06-22T13:18:33;99691.75;;;38.40;30.44
7376;BME280;3728;42.266;24.944;2023-06-22T13:21:03;99685.47;;;37.82;29.88
7376;BME280;3728;42.266;24.944;2023-06-22T13:23:31;99688.94;;;37.22;32.02
7376;BME280;3728;42.266;24.944;2023-06-22T13:25:58;99675.28;;;37.02;30.35
7376;BME280;3728;42.266;24.944;2023-06-22T13:28:27;99682.53;;;37.05;30.25